Time;durP1;ratioP1;P1;durP2;ratioP2;P2;SDS_P1;SDS_P2;PMS_P1;PMS_P2;Temp;Humidity;BMP_temperature;BMP_pressure;BME280_temperature;BME280_humidity;BME280_pressure;Samples;Min_cycle;Max_cycle;Signal;HPM_P1;HPM_P2
2020/12/03 00:02:16;;;;;;;101.78;26.35;;;0.50;1.00;;;;;;5031462;28;20313;-76
2020/12/03 00:04:44;;;;;;;113.88;30.33;;;0.50;1.00;;;;;;5031147;28;20739;-76
2020/12/03 00:07:12;;;;;;;109.82;29.35;;;0.50;1.00;;;;;;5031332;28;20264;-76
2020/12/03 00:09:38;;;;;;;116.85;32.35;;;0.50;1.00;;;;;;5031228;28;20301;-76
2020/12/03 00:12:05;;;;;;;130.43;34.45;;;0.50;1.00;;;;;;5061730;22;20282;-72
2020/12/03 00:14:31;;;;;;;114.90;31.40;;;0.50;1.00;;;;;;5070030;28;20220;-72
2020/12/03 00:16:58;;;;;;;111.38;30.02;;;0.50;1.00;;;;;;5071263;28;20231;-73
2020/12/03 00:19:26;;;;;;;115.20;28.55;;;0.50;1.00;;;;;;5071175;28;20204;-73
2020/12/03 00:21:55;;;;;;;127.55;30.63;;;0.50;1.00;;;;;;5070815;28;20221;-72
2020/12/03 00:24:25;;;;;;;106.80;30.33;;;0.50;1.00;;;;;;5071140;28;20204;-73
2020/12/03 00:26:52;;;;;;;109.00;31.38;;;0.50;1.00;;;;;;5071454;28;20212;-73
2020/12/03 00:29:19;;;;;;;115.63;29.58;;;0.50;1.00;;;;;;5073945;28;20258;-73
2020/12/03 00:31:46;;;;;;;106.63;29.08;;;0.50;1.00;;;;;;5075182;28;20434;-73
2020/12/03 00:34:14;;;;;;;116.88;30.88;;;0.50;1.00;;;;;;5074632;28;20204;-73
2020/12/03 00:36:42;;;;;;;111.43;29.50;;;0.50;1.00;;;;;;5074914;28;20208;-72
2020/12/03 00:39:10;;;;;;;112.18;26.90;;;0.50;1.00;;;;;;5075227;28;20208;-72
2020/12/03 00:41:36;;;;;;;109.30;30.20;;;0.50;1.00;;;;;;5074949;28;20225;-72
2020/12/03 00:44:03;;;;;;;109.93;31.27;;;0.50;1.00;;;;;;5074784;28;20227;-72
2020/12/03 00:46:31;;;;;;;117.85;29.63;;;0.50;1.00;;;;;;5074732;28;20315;-72
2020/12/03 00:48:57;;;;;;;106.00;28.77;;;0.50;1.00;;;;;;5074818;28;20304;-73
2020/12/03 00:51:25;;;;;;;106.55;27.50;;;0.50;1.00;;;;;;5074923;28;20546;-73
2020/12/03 00:53:52;;;;;;;108.93;30.13;;;0.50;1.00;;;;;;5074353;28;20822;-72
2020/12/03 00:56:19;;;;;;;105.70;27.13;;;0.50;1.00;;;;;;5074699;28;20205;-72
2020/12/03 00:58:45;;;;;;;111.45;28.70;;;0.50;1.00;;;;;;5074462;28;20291;-72
2020/12/03 01:01:12;;;;;;;123.25;32.45;;;0.50;1.00;;;;;;5074570;28;20231;-73
2020/12/03 01:03:39;;;;;;;114.38;31.23;;;0.60;1.00;;;;;;5073951;28;20232;-72
2020/12/03 01:06:05;;;;;;;105.80;30.63;;;0.60;1.00;;;;;;5074450;28;20296;-72
2020/12/03 01:08:32;;;;;;;108.72;28.73;;;0.60;1.00;;;;;;5074207;28;20240;-72
2020/12/03 01:10:59;;;;;;;113.25;27.13;;;0.50;1.00;;;;;;5074566;28;20633;-72
2020/12/03 01:13:26;;;;;;;113.55;26.30;;;0.50;1.00;;;;;;5073817;28;20235;-72
2020/12/03 01:15:52;;;;;;;108.53;28.60;;;0.50;1.00;;;;;;5074106;28;20205;-72
2020/12/03 01:18:19;;;;;;;111.30;30.25;;;0.60;1.00;;;;;;5074493;28;20213;-72
2020/12/03 01:20:46;;;;;;;116.80;30.00;;;0.60;1.00;;;;;;5074178;28;20219;-72
2020/12/03 01:23:12;;;;;;;105.18;26.27;;;0.50;1.00;;;;;;5074203;28;20228;-72
2020/12/03 01:25:38;;;;;;;108.93;27.77;;;0.50;1.00;;;;;;5073934;28;20608;-72
2020/12/03 01:28:06;;;;;;;106.68;30.27;;;0.50;1.00;;;;;;5074128;28;20587;-72
2020/12/03 01:30:32;;;;;;;112.35;28.25;;;0.50;1.00;;;;;;5073744;28;20291;-72
2020/12/03 01:32:59;;;;;;;115.60;29.60;;;0.60;1.00;;;;;;5074221;28;20229;-72
2020/12/03 01:35:25;;;;;;;105.53;29.38;;;0.60;1.00;;;;;;5073809;28;20207;-72
2020/12/03 01:37:52;;;;;;;115.30;29.75;;;0.60;1.00;;;;;;5074094;28;20299;-72
2020/12/03 01:40:21;;;;;;;102.10;26.85;;;0.60;1.00;;;;;;5072512;28;20205;-72
2020/12/03 01:42:48;;;;;;;108.43;29.50;;;0.60;1.00;;;;;;5073560;28;20232;-72
2020/12/03 01:45:55;;;;;;;114.80;29.45;;;0.50;1.00;;;;;;5073248;28;20672;-72
2020/12/03 01:48:35;;;;;;;115.88;29.83;;;0.50;1.00;;;;;;5073830;28;20251;-72
2020/12/03 01:51:03;;;;;;;118.47;31.98;;;0.50;1.00;;;;;;5073711;28;20211;-72
2020/12/03 01:53:30;;;;;;;112.50;28.05;;;0.50;1.00;;;;;;5073072;28;20726;-72
2020/12/03 01:55:57;;;;;;;111.20;30.48;;;0.50;1.00;;;;;;5073843;28;20574;-72
2020/12/03 01:58:33;;;;;;;115.38;32.40;;;0.50;1.00;;;;;;5073447;28;20220;-72
2020/12/03 02:01:02;;;;;;;115.45;30.45;;;0.50;1.00;;;;;;5073990;28;20435;-72
2020/12/03 02:03:28;;;;;;;117.25;32.28;;;0.50;1.00;;;;;;5072882;28;20263;-72
2020/12/03 02:05:55;;;;;;;111.47;30.27;;;0.50;1.00;;;;;;5073301;28;20292;-72
2020/12/03 02:08:21;;;;;;;118.13;32.38;;;0.40;1.00;;;;;;5073215;28;20208;-72
2020/12/03 02:10:47;;;;;;;111.07;30.25;;;0.40;1.00;;;;;;5073615;28;20291;-72
2020/12/03 02:13:14;;;;;;;107.88;29.75;;;0.40;1.00;;;;;;5072902;28;20236;-72
2020/12/03 02:15:40;;;;;;;120.00;31.25;;;0.40;1.00;;;;;;5073106;28;20295;-72
2020/12/03 02:18:08;;;;;;;119.18;32.90;;;0.40;1.00;;;;;;5073240;28;20327;-72
2020/12/03 02:20:36;;;;;;;119.80;32.85;;;0.40;1.00;;;;;;5072862;28;20204;-72
2020/12/03 02:23:11;;;;;;;107.50;29.95;;;0.40;1.00;;;;;;5072994;28;20788;-72
2020/12/03 02:25:37;;;;;;;113.15;31.73;;;0.40;1.00;;;;;;5072832;28;20212;-72
2020/12/03 02:28:05;;;;;;;115.20;30.17;;;0.40;1.00;;;;;;5073064;28;20241;-72
2020/12/03 02:30:31;;;;;;;114.63;29.55;;;0.40;1.00;;;;;;5072829;28;20208;-72
2020/12/03 02:32:58;;;;;;;108.15;30.08;;;0.40;1.00;;;;;;5069619;28;20634;-72
2020/12/03 02:35:24;;;;;;;115.22;32.10;;;0.40;1.00;;;;;;5072685;28;20207;-72
2020/12/03 02:37:51;;;;;;;118.38;32.25;;;0.40;1.00;;;;;;5072962;28;20399;-72
2020/12/03 02:40:18;;;;;;;120.43;31.80;;;0.40;1.00;;;;;;5072819;28;20239;-72
2020/12/03 02:42:44;;;;;;;109.43;29.75;;;0.40;1.00;;;;;;5072410;28;20282;-73
2020/12/03 02:45:11;;;;;;;116.13;32.10;;;0.40;1.00;;;;;;5072433;28;20204;-72
2020/12/03 02:47:37;;;;;;;115.20;30.42;;;0.40;1.00;;;;;;5072707;28;20292;-72
2020/12/03 02:50:04;;;;;;;117.20;30.65;;;0.30;1.00;;;;;;5072743;28;20680;-72
2020/12/03 02:52:31;;;;;;;106.30;29.73;;;0.30;1.00;;;;;;5071893;28;20315;-72
2020/12/03 02:54:58;;;;;;;122.95;31.70;;;0.30;1.00;;;;;;5072256;28;20746;-72
2020/12/03 02:57:24;;;;;;;126.13;33.17;;;0.30;1.00;;;;;;5072063;28;20247;-72
2020/12/03 02:59:51;;;;;;;112.82;29.10;;;0.30;1.00;;;;;;5072354;28;20288;-72
2020/12/03 03:02:17;;;;;;;115.03;31.77;;;0.30;1.00;;;;;;5072251;28;20311;-72
2020/12/03 03:04:44;;;;;;;114.55;32.83;;;0.30;1.00;;;;;;5072073;28;20204;-72
2020/12/03 03:07:10;;;;;;;118.88;33.15;;;0.30;1.00;;;;;;5072114;28;20208;-72
2020/12/03 03:09:36;;;;;;;108.82;27.25;;;0.30;1.00;;;;;;5072041;28;20232;-72
2020/12/03 03:12:04;;;;;;;111.90;29.60;;;0.30;1.00;;;;;;5071729;28;20316;-72
2020/12/03 03:14:30;;;;;;;110.20;29.15;;;0.30;1.00;;;;;;5071956;28;20208;-72
2020/12/03 03:16:57;;;;;;;112.28;30.05;;;0.30;1.00;;;;;;5072242;28;20300;-72
2020/12/03 03:19:23;;;;;;;117.22;30.77;;;0.30;1.00;;;;;;5071888;28;20668;-72
2020/12/03 03:21:49;;;;;;;113.88;30.60;;;0.30;1.00;;;;;;5071765;28;20221;-72
2020/12/03 03:24:16;;;;;;;109.32;28.30;;;0.30;1.00;;;;;;5071613;28;20204;-72
2020/12/03 03:26:43;;;;;;;108.72;30.05;;;0.30;1.00;;;;;;5071820;28;20376;-72
2020/12/03 03:29:11;;;;;;;111.00;26.92;;;0.30;1.00;;;;;;5071863;28;20209;-72
2020/12/03 03:31:37;;;;;;;104.60;27.63;;;0.30;1.00;;;;;;5072009;28;20223;-72
2020/12/03 03:34:04;;;;;;;101.00;26.08;;;0.30;1.00;;;;;;5071564;28;20201;-72
2020/12/03 03:36:31;;;;;;;105.05;27.90;;;0.40;1.00;;;;;;5071735;28;20645;-72
2020/12/03 03:38:57;;;;;;;105.18;27.73;;;0.40;1.00;;;;;;5071528;28;20204;-72
2020/12/03 03:41:24;;;;;;;105.28;29.35;;;0.40;1.00;;;;;;5071728;28;20315;-72
2020/12/03 03:43:51;;;;;;;112.10;27.75;;;0.40;1.00;;;;;;5071537;28;20267;-72
2020/12/03 03:46:18;;;;;;;109.20;28.25;;;0.40;1.00;;;;;;5071656;28;20204;-72
2020/12/03 03:48:45;;;;;;;118.20;31.05;;;0.40;1.00;;;;;;5071559;28;20752;-72
2020/12/03 03:51:11;;;;;;;112.35;30.77;;;0.40;1.00;;;;;;5071546;28;20883;-72
2020/12/03 03:53:38;;;;;;;115.03;30.95;;;0.40;1.00;;;;;;5070964;28;20228;-72
2020/12/03 03:56:04;;;;;;;110.22;28.10;;;0.50;1.00;;;;;;5071631;28;20211;-72
2020/12/03 03:58:30;;;;;;;117.53;31.08;;;0.50;1.00;;;;;;5071694;28;20208;-72
2020/12/03 04:00:58;;;;;;;109.28;27.73;;;0.50;1.00;;;;;;5071519;28;20212;-72
2020/12/03 04:03:25;;;;;;;110.50;29.30;;;0.50;1.00;;;;;;5070444;28;20282;-72
2020/12/03 04:05:53;;;;;;;119.57;31.58;;;0.50;1.00;;;;;;5071101;28;20574;-72
2020/12/03 04:08:21;;;;;;;116.20;30.10;;;0.50;1.00;;;;;;5071512;28;20208;-72
2020/12/03 04:10:50;;;;;;;106.25;29.38;;;0.50;1.00;;;;;;5071507;28;20205;-72
2020/12/03 04:13:17;;;;;;;115.10;28.17;;;0.50;1.00;;;;;;5071082;28;20235;-72
2020/12/03 04:15:43;;;;;;;106.43;24.73;;;0.50;1.00;;;;;;5071077;28;20209;-72
2020/12/03 04:18:10;;;;;;;107.47;26.33;;;0.50;1.00;;;;;;5071307;28;20300;-72
2020/12/03 04:20:37;;;;;;;110.50;28.40;;;0.50;1.00;;;;;;5071148;28;20303;-72
2020/12/03 04:23:03;;;;;;;110.25;28.15;;;0.50;1.00;;;;;;5071250;28;20233;-72
2020/12/03 04:25:30;;;;;;;110.35;28.20;;;0.50;1.00;;;;;;5071257;28;20330;-72
2020/12/03 04:27:57;;;;;;;108.72;28.48;;;0.40;1.00;;;;;;5071026;28;20691;-72
2020/12/03 04:30:23;;;;;;;109.90;29.08;;;0.40;1.00;;;;;;5071283;28;20209;-72
2020/12/03 04:32:50;;;;;;;104.35;25.70;;;0.50;1.00;;;;;;5070962;28;20307;-72
2020/12/03 04:35:17;;;;;;;104.82;26.38;;;0.50;1.00;;;;;;5070644;28;20201;-72
2020/12/03 04:37:46;;;;;;;105.72;25.63;;;0.50;1.00;;;;;;5071114;28;20209;-72
2020/12/03 04:40:24;;;;;;;106.13;27.08;;;0.50;1.00;;;;;;5071284;28;20208;-73
2020/12/03 04:42:51;;;;;;;97.05;25.27;;;0.60;1.00;;;;;;5071006;28;20316;-72
2020/12/03 04:45:30;;;;;;;99.25;24.23;;;0.60;1.00;;;;;;5070827;28;20259;-72
2020/12/03 04:48:10;;;;;;;106.72;24.65;;;0.60;1.00;;;;;;5071208;28;20200;-72
2020/12/03 04:50:43;;;;;;;104.15;24.20;;;0.70;1.00;;;;;;5070974;28;20200;-72
2020/12/03 04:53:34;;;;;;;96.00;24.08;;;0.70;1.00;;;;;;5070982;28;20235;-72
2020/12/03 04:56:05;;;;;;;92.50;21.98;;;0.70;1.00;;;;;;5070601;28;20201;-72
2020/12/03 04:58:46;;;;;;;91.53;21.48;;;0.70;1.00;;;;;;5071066;28;20201;-72
2020/12/03 05:01:43;;;;;;;88.85;19.67;;;0.70;1.00;;;;;;5071042;28;20676;-72
2020/12/03 05:04:11;;;;;;;95.35;24.10;;;0.70;1.00;;;;;;5070667;28;20312;-72
2020/12/03 05:06:53;;;;;;;100.25;24.55;;;0.70;1.00;;;;;;5070669;28;20736;-72
2020/12/03 05:09:24;;;;;;;97.47;22.85;;;0.70;1.00;;;;;;5070910;28;20212;-72
2020/12/03 05:11:55;;;;;;;86.95;20.42;;;0.70;1.00;;;;;;5070764;28;20291;-72
2020/12/03 05:14:50;;;;;;;112.40;28.20;;;0.70;1.00;;;;;;5071698;28;20215;-72
2020/12/03 05:17:32;;;;;;;105.43;28.05;;;0.70;1.00;;;;;;5050439;28;20209;-72
2020/12/03 05:20:28;;;;;;;100.57;25.77;;;0.70;1.00;;;;;;5074457;28;20205;-72
2020/12/03 05:23:04;;;;;;;100.60;25.75;;;0.70;1.00;;;;;;5074096;28;20335;-72
2020/12/03 05:25:31;;;;;;;105.55;24.00;;;0.70;1.00;;;;;;5074136;28;20212;-72
2020/12/03 05:28:02;;;;;;;101.97;25.02;;;0.70;1.00;;;;;;5074257;28;20207;-72
2020/12/03 05:30:29;;;;;;;112.57;26.77;;;0.70;1.00;;;;;;5074389;28;20213;-72
2020/12/03 05:32:55;;;;;;;103.20;25.25;;;0.70;1.00;;;;;;5073820;28;20312;-72
2020/12/03 05:35:21;;;;;;;100.05;23.83;;;0.70;1.00;;;;;;5073961;28;20583;-72
2020/12/03 05:37:48;;;;;;;96.50;25.42;;;0.70;1.00;;;;;;5073790;28;20232;-72
2020/12/03 05:40:21;;;;;;;113.07;29.17;;;0.70;1.00;;;;;;5074092;28;20204;-72
2020/12/03 05:42:49;;;;;;;109.45;25.80;;;0.70;1.00;;;;;;5073891;28;20270;-72
2020/12/03 05:45:21;;;;;;;117.13;30.65;;;0.70;1.00;;;;;;5074010;28;20211;-72
2020/12/03 05:47:51;;;;;;;109.45;28.52;;;0.70;1.00;;;;;;5073920;28;20205;-72
2020/12/03 05:50:33;;;;;;;110.43;29.42;;;0.70;1.00;;;;;;5073586;28;20213;-72
2020/12/03 05:53:02;;;;;;;108.35;28.27;;;0.70;1.00;;;;;;5073822;28;20311;-72
2020/12/03 05:55:30;;;;;;;106.15;27.67;;;0.70;1.00;;;;;;5073539;28;20619;-72
2020/12/03 05:58:12;;;;;;;103.75;27.35;;;0.70;1.00;;;;;;5073756;28;20209;-72
2020/12/03 06:00:39;;;;;;;109.72;30.45;;;0.70;1.00;;;;;;5073397;28;20209;-72
2020/12/03 06:03:27;;;;;;;109.10;28.20;;;0.70;1.00;;;;;;5073589;28;20237;-72
2020/12/03 06:06:19;;;;;;;108.35;28.27;;;0.70;1.00;;;;;;5073590;28;20208;-72
2020/12/03 06:09:01;;;;;;;112.35;29.08;;;0.70;1.00;;;;;;5066238;28;20204;-72
2020/12/03 06:11:41;;;;;;;112.88;28.17;;;0.70;1.00;;;;;;5073225;28;20308;-72
2020/12/03 06:14:28;;;;;;;112.70;29.23;;;0.70;1.00;;;;;;5069996;28;20197;-72
2020/12/03 06:17:04;;;;;;;113.32;30.77;;;0.70;1.00;;;;;;5072256;28;20223;-72
2020/12/03 06:19:44;;;;;;;110.43;26.33;;;0.70;1.00;;;;;;5076288;22;20256;-73
2020/12/03 06:22:22;;;;;;;112.03;28.40;;;0.70;1.00;;;;;;5035868;28;20230;-72
2020/12/03 06:25:20;;;;;;;103.72;28.30;;;0.80;1.00;;;;;;5033327;28;20220;-72
2020/12/03 06:28:07;;;;;;;108.90;28.90;;;0.70;1.00;;;;;;5030676;28;20207;-72
2020/12/03 06:30:40;;;;;;;112.55;28.73;;;0.70;1.00;;;;;;5013509;28;20211;-72
2020/12/03 06:33:43;;;;;;;117.28;29.80;;;0.70;1.00;;;;;;5013524;28;20207;-72
2020/12/03 06:36:39;;;;;;;109.45;28.00;;;0.80;1.00;;;;;;4991292;28;20298;-72
2020/12/03 06:39:25;;;;;;;112.82;30.60;;;0.80;1.00;;;;;;4991646;28;20267;-72
2020/12/03 06:41:57;;;;;;;118.15;28.77;;;0.80;1.00;;;;;;5009208;28;20301;-73
2020/12/03 06:44:28;;;;;;;115.03;30.50;;;0.80;1.00;;;;;;5013267;28;20289;-73
2020/12/03 06:47:27;;;;;;;111.57;29.40;;;0.80;1.00;;;;;;5013484;28;20207;-73
2020/12/03 06:50:27;;;;;;;105.07;26.27;;;0.80;1.00;;;;;;5013605;28;20606;-73
2020/12/03 06:53:19;;;;;;;101.88;25.40;;;0.80;1.00;;;;;;5013679;28;20189;-73
2020/12/03 06:56:03;;;;;;;117.93;24.35;;;0.80;1.00;;;;;;5013620;28;20217;-73
2020/12/03 06:59:06;;;;;;;98.75;26.55;;;0.80;1.00;;;;;;5013191;28;20317;-73
2020/12/03 07:02:20;;;;;;;107.38;28.02;;;0.80;1.00;;;;;;5013359;28;20254;-72
2020/12/03 07:05:36;;;;;;;93.97;23.13;;;0.80;1.00;;;;;;5003603;28;20582;-72
2020/12/03 07:08:31;;;;;;;105.82;26.27;;;0.80;1.00;;;;;;5012981;28;20210;-72
2020/12/03 07:11:19;;;;;;;97.10;25.58;;;0.80;1.00;;;;;;5013022;28;20298;-72
2020/12/03 07:14:40;;;;;;;100.60;24.13;;;0.80;1.00;;;;;;5012704;28;20294;-72
2020/12/03 07:17:35;;;;;;;89.65;21.30;;;0.80;1.00;;;;;;5004261;28;20294;-72
2020/12/03 07:20:41;;;;;;;91.00;23.77;;;0.90;1.00;;;;;;5012593;28;20747;-72
2020/12/03 07:23:14;;;;;;;98.70;25.08;;;0.90;1.00;;;;;;5006421;28;20230;-72
2020/12/03 07:25:42;;;;;;;94.50;22.65;;;0.90;1.00;;;;;;5012517;28;20261;-73
2020/12/03 07:28:19;;;;;;;91.13;24.17;;;1.00;1.00;;;;;;5012255;28;20215;-73
2020/12/03 07:30:52;;;;;;;97.85;24.35;;;1.00;1.00;;;;;;5012858;28;20202;-72
2020/12/03 07:33:32;;;;;;;93.10;23.20;;;1.10;1.00;;;;;;5012401;28;20214;-72
2020/12/03 07:36:17;;;;;;;89.85;22.20;;;1.10;1.00;;;;;;5012244;28;20306;-72
2020/12/03 07:38:52;;;;;;;96.50;23.67;;;1.10;1.00;;;;;;5008067;28;20314;-73
2020/12/03 07:41:21;;;;;;;88.70;22.48;;;1.20;1.00;;;;;;5012325;28;20300;-72
2020/12/03 07:43:47;;;;;;;91.20;22.35;;;1.10;1.00;;;;;;5012345;28;20217;-72
2020/12/03 07:46:38;;;;;;;94.10;23.30;;;1.10;1.00;;;;;;5012286;28;20306;-72
2020/12/03 07:49:05;;;;;;;96.05;25.05;;;1.20;1.00;;;;;;5011747;28;20227;-73
2020/12/03 07:51:33;;;;;;;92.68;22.70;;;1.30;1.00;;;;;;5012072;28;20459;-72
2020/12/03 07:54:23;;;;;;;86.03;20.20;;;1.30;1.00;;;;;;5012015;28;20215;-72
2020/12/03 07:56:49;;;;;;;77.70;18.63;;;1.40;1.00;;;;;;5011958;28;20254;-73
2020/12/03 07:59:38;;;;;;;91.05;20.40;;;1.50;1.00;;;;;;5011775;28;20321;-72
2020/12/03 08:02:43;;;;;;;84.38;19.35;;;1.50;1.00;;;;;;5011962;28;20231;-72
2020/12/03 08:05:38;;;;;;;87.97;20.25;;;1.50;1.00;;;;;;5011383;28;20727;-72
2020/12/03 08:08:04;;;;;;;83.10;19.45;;;1.50;1.00;;;;;;5011830;28;20207;-73
2020/12/03 08:10:39;;;;;;;80.82;20.38;;;1.40;1.00;;;;;;5011555;28;20257;-72
2020/12/03 08:13:07;;;;;;;83.03;18.33;;;1.50;1.00;;;;;;5011902;28;20210;-73
2020/12/03 08:15:34;;;;;;;82.40;17.55;;;1.50;1.00;;;;;;5011785;28;20298;-73
2020/12/03 08:18:00;;;;;;;82.30;18.52;;;1.60;1.00;;;;;;5014671;28;20210;-73
2020/12/03 08:20:45;;;;;;;83.65;17.52;;;1.60;1.00;;;;;;5014954;28;20218;-74
2020/12/03 08:23:13;;;;;;;88.15;20.00;;;1.60;1.00;;;;;;5011075;28;20230;-72
2020/12/03 08:25:46;;;;;;;83.72;20.13;;;1.60;1.00;;;;;;5011425;28;20217;-73
2020/12/03 08:28:20;;;;;;;80.53;18.35;;;1.60;1.00;;;;;;5011391;28;20227;-74
2020/12/03 08:30:51;;;;;;;87.72;21.05;;;1.70;1.00;;;;;;5011565;28;20210;-73
2020/12/03 08:33:24;;;;;;;82.78;18.05;;;1.70;1.00;;;;;;5011662;28;20203;-73
2020/12/03 08:35:52;;;;;;;77.13;15.23;;;1.70;1.00;;;;;;5011600;28;20207;-73
2020/12/03 08:38:25;;;;;;;80.35;18.90;;;1.80;1.00;;;;;;5011371;28;20231;-73
2020/12/03 08:40:53;;;;;;;82.28;17.77;;;1.90;1.00;;;;;;5012082;28;20218;-73
2020/12/03 08:43:21;;;;;;;80.82;18.85;;;1.90;1.00;;;;;;5011132;28;20226;-74
2020/12/03 08:45:56;;;;;;;79.15;18.58;;;2.00;1.00;;;;;;5011225;28;20670;-73
2020/12/03 08:48:28;;;;;;;81.93;17.85;;;2.10;1.00;;;;;;5011273;28;20241;-73
2020/12/03 08:50:56;;;;;;;85.18;19.42;;;2.20;1.00;;;;;;5015040;28;20698;-72
2020/12/03 08:53:23;;;;;;;87.30;21.27;;;2.30;1.00;;;;;;5015189;28;20203;-73
2020/12/03 08:55:49;;;;;;;78.18;18.17;;;2.40;1.00;;;;;;5014885;28;20305;-73
2020/12/03 08:58:21;;;;;;;81.93;17.02;;;2.40;1.00;;;;;;5015231;28;20227;-73
2020/12/03 09:00:49;;;;;;;79.13;17.30;;;2.50;1.00;;;;;;5015196;28;20257;-72
2020/12/03 09:03:15;;;;;;;81.20;17.45;;;2.40;1.00;;;;;;5015002;28;20227;-73
2020/12/03 09:05:44;;;;;;;82.32;17.45;;;2.40;1.00;;;;;;5014830;28;20207;-72
2020/12/03 09:08:17;;;;;;;81.07;18.15;;;2.40;1.00;;;;;;5014765;28;20674;-72
2020/12/03 09:10:43;;;;;;;80.80;19.10;;;2.50;1.00;;;;;;5014922;28;20206;-73
2020/12/03 09:13:10;;;;;;;87.70;19.55;;;2.60;1.00;;;;;;5014890;28;20203;-73
2020/12/03 09:15:37;;;;;;;82.75;19.10;;;2.80;1.00;;;;;;5014757;28;20203;-73
2020/12/03 09:18:05;;;;;;;87.22;19.85;;;2.90;1.00;;;;;;5014735;28;20215;-74
2020/12/03 09:20:32;;;;;;;87.38;21.45;;;3.00;1.00;;;;;;5014429;28;20211;-73
2020/12/03 09:22:59;;;;;;;85.75;19.70;;;3.20;1.00;;;;;;5014834;28;20237;-72
2020/12/03 09:25:26;;;;;;;84.60;20.15;;;3.30;1.00;;;;;;5014559;28;20299;-74
2020/12/03 09:27:52;;;;;;;83.25;20.15;;;3.30;1.00;;;;;;5014450;28;20753;-73
2020/12/03 09:30:21;;;;;;;78.20;18.00;;;3.30;1.00;;;;;;5014973;28;20214;-72
2020/12/03 09:32:51;;;;;;;84.65;19.10;;;3.30;1.00;;;;;;5014329;28;20298;-73
2020/12/03 09:35:19;;;;;;;80.45;17.98;;;3.30;1.00;;;;;;5014186;28;20337;-74
2020/12/03 09:37:45;;;;;;;78.80;18.45;;;3.20;1.00;;;;;;5014542;28;20584;-74
2020/12/03 09:40:13;;;;;;;85.72;20.90;;;3.10;1.00;;;;;;5014276;28;20318;-74
2020/12/03 09:42:45;;;;;;;77.70;18.17;;;3.20;1.00;;;;;;5014618;28;20227;-73
2020/12/03 09:45:16;;;;;;;82.45;19.85;;;3.20;1.00;;;;;;5014156;28;20259;-73
2020/12/03 09:47:44;;;;;;;79.30;20.00;;;3.10;1.00;;;;;;5014075;28;20639;-73
2020/12/03 09:50:13;;;;;;;79.75;17.77;;;3.10;1.00;;;;;;5014331;28;20231;-73
2020/12/03 09:52:41;;;;;;;82.03;20.35;;;3.10;1.00;;;;;;5014196;28;20294;-73
2020/12/03 09:55:09;;;;;;;79.40;18.95;;;3.00;1.00;;;;;;5013980;28;20257;-73
2020/12/03 09:57:37;;;;;;;82.18;19.33;;;2.90;1.00;;;;;;5014176;28;20210;-73
2020/12/03 10:00:06;;;;;;;80.82;20.33;;;3.00;1.00;;;;;;5013506;28;20660;-73
2020/12/03 10:03:21;;;;;;;79.57;19.05;;;3.00;1.00;;;;;;5013340;28;20238;-73
2020/12/03 10:06:04;;;;;;;80.93;20.25;;;3.10;1.00;;;;;;5013867;28;20315;-74
2020/12/03 10:09:01;;;;;;;83.72;19.88;;;3.10;1.00;;;;;;5012981;28;20660;-73
2020/12/03 10:11:56;;;;;;;81.38;17.65;;;3.20;1.00;;;;;;5013991;28;20218;-73
2020/12/03 10:14:40;;;;;;;80.72;19.23;;;3.40;1.00;;;;;;5004403;28;20307;-74
2020/12/03 10:17:08;;;;;;;76.97;16.65;;;3.60;1.00;;;;;;5013937;28;20199;-73
2020/12/03 10:19:40;;;;;;;78.25;18.35;;;3.80;1.00;;;;;;5018353;28;20321;-74
2020/12/03 10:22:11;;;;;;;80.60;19.50;;;4.00;1.00;;;;;;5016814;28;20233;-74
2020/12/03 10:24:43;;;;;;;81.22;17.98;;;4.20;1.00;;;;;;5013471;28;20211;-73
2020/12/03 10:27:18;;;;;;;76.65;17.30;;;4.40;1.00;;;;;;5013431;28;20584;-72
2020/12/03 10:29:53;;;;;;;78.75;18.38;;;4.40;1.00;;;;;;5013739;28;20798;-73
2020/12/03 10:32:23;;;;;;;75.13;16.45;;;4.40;1.00;;;;;;5013544;28;20289;-73
2020/12/03 10:34:49;;;;;;;74.60;17.08;;;4.50;1.00;;;;;;5013188;28;20294;-73
2020/12/03 10:37:29;;;;;;;77.25;16.98;;;4.50;1.00;;;;;;5013181;28;20294;-73
2020/12/03 10:40:00;;;;;;;77.25;19.90;;;4.90;1.00;;;;;;5013089;28;20280;-73
2020/12/03 10:42:32;;;;;;;82.55;19.50;;;5.60;1.00;;;;;;5013353;28;20219;-73
2020/12/03 10:45:05;;;;;;;84.80;23.13;;;7.00;1.00;;;;;;5013131;28;20212;-74
2020/12/03 10:47:42;;;;;;;80.23;21.00;;;8.80;1.00;;;;;;5012738;28;20215;-73
2020/12/03 10:50:16;;;;;;;76.90;19.13;;;9.90;1.00;;;;;;5012960;28;21012;-74
2020/12/03 10:52:44;;;;;;;73.23;16.70;;;10.60;1.00;;;;;;5013279;28;20444;-73
2020/12/03 10:55:11;;;;;;;72.30;16.47;;;11.10;1.00;;;;;;5012885;28;20831;-72
2020/12/03 10:57:46;;;;;;;71.00;14.40;;;11.00;1.00;;;;;;5012893;28;20453;-73
2020/12/03 11:00:14;;;;;;;70.03;14.57;;;10.80;1.00;;;;;;5012805;28;20468;-72
2020/12/03 11:02:43;;;;;;;71.70;14.10;;;10.50;1.00;;;;;;5012382;28;20495;-72
2020/12/03 11:05:12;;;;;;;71.93;13.93;;;9.70;1.00;;;;;;5012799;28;20540;-72
2020/12/03 11:07:39;;;;;;;69.40;12.60;;;8.80;1.00;;;;;;5012777;28;20449;-72
2020/12/03 11:10:07;;;;;;;70.80;13.57;;;8.00;1.00;;;;;;5012618;28;20470;-74
2020/12/03 11:12:33;;;;;;;67.05;11.68;;;7.30;1.00;;;;;;5012653;28;20452;-72
2020/12/03 11:15:04;;;;;;;68.05;12.55;;;6.70;1.00;;;;;;5012308;28;20299;-73
2020/12/03 11:18:01;;;;;;;68.13;11.73;;;6.20;1.00;;;;;;5012547;28;20208;-73
2020/12/03 11:20:31;;;;;;;68.00;11.70;;;5.70;1.00;;;;;;5012312;28;20219;-72
2020/12/03 11:23:12;;;;;;;69.47;12.32;;;5.30;1.00;;;;;;5012446;28;20230;-75
2020/12/03 11:25:39;;;;;;;67.68;12.30;;;4.90;1.00;;;;;;5011968;28;20211;-73
2020/12/03 11:28:23;;;;;;;66.90;12.00;;;4.80;1.00;;;;;;5012606;28;20249;-72
2020/12/03 11:31:01;;;;;;;68.78;12.10;;;4.60;1.00;;;;;;5012465;28;20309;-73
2020/12/03 11:33:33;;;;;;;65.45;10.65;;;4.50;1.00;;;;;;5012310;28;20256;-71
2020/12/03 11:36:11;;;;;;;68.25;11.20;;;4.30;1.00;;;;;;5011978;28;20580;-75
2020/12/03 11:38:39;;;;;;;69.90;12.85;;;4.20;1.00;;;;;;5012442;28;20233;-74
2020/12/03 11:41:09;;;;;;;66.60;10.07;;;4.10;1.00;;;;;;5012107;28;20211;-74
2020/12/03 11:46:49;;;;;;;67.70;11.48;;;3.80;1.00;;;;;;4997269;28;20215;-74
2020/12/03 11:49:24;;;;;;;70.30;11.32;;;3.80;1.00;;;;;;5012215;28;20709;-74
2020/12/03 11:51:50;;;;;;;67.00;11.13;;;3.80;1.00;;;;;;5012093;28;20224;-72
2020/12/03 11:54:17;;;;;;;69.22;12.07;;;3.90;1.00;;;;;;5012042;28;20210;-73
2020/12/03 11:56:43;;;;;;;69.30;12.63;;;3.90;1.00;;;;;;5012095;28;20210;-74
2020/12/03 11:59:13;;;;;;;67.88;11.02;;;4.00;1.00;;;;;;5012031;28;20235;-74
2020/12/03 12:01:40;;;;;;;64.13;10.00;;;4.00;1.00;;;;;;5011832;28;20297;-73
2020/12/03 12:04:10;;;;;;;64.28;9.27;;;4.00;1.00;;;;;;5011866;28;20230;-73
2020/12/03 12:06:48;;;;;;;66.53;10.93;;;4.00;1.00;;;;;;5011692;28;20234;-73
2020/12/03 12:09:19;;;;;;;68.22;12.20;;;3.80;1.00;;;;;;5011609;28;20238;-73
2020/12/03 12:11:45;;;;;;;68.30;10.50;;;3.80;1.00;;;;;;5012062;28;20215;-74
2020/12/03 12:14:12;;;;;;;67.13;10.05;;;3.80;1.00;;;;;;5011910;28;20199;-74
2020/12/03 12:16:38;;;;;;;65.78;9.90;;;3.70;1.00;;;;;;5011600;28;20214;-74
2020/12/03 12:19:05;;;;;;;66.30;10.50;;;3.70;1.00;;;;;;5033233;22;20550;-72
2020/12/03 12:21:34;;;;;;;64.80;9.45;;;3.80;1.00;;;;;;5051913;28;20212;-71
2020/12/03 12:24:01;;;;;;;63.42;9.00;;;3.90;1.00;;;;;;5051867;28;20708;-73
2020/12/03 12:26:28;;;;;;;65.63;8.52;;;4.00;1.00;;;;;;5056173;28;20300;-70
2020/12/03 12:28:54;;;;;;;64.00;8.63;;;4.00;1.00;;;;;;5056028;28;20298;-73
2020/12/03 12:31:21;;;;;;;63.13;8.23;;;4.00;1.00;;;;;;5056494;28;20209;-73
2020/12/03 12:33:48;;;;;;;62.63;8.35;;;4.00;1.00;;;;;;5055315;28;20271;-73
2020/12/03 12:36:14;;;;;;;64.35;9.05;;;4.00;1.00;;;;;;5054629;28;20319;-72
2020/12/03 12:38:41;;;;;;;63.17;8.30;;;4.00;1.00;;;;;;5054632;28;20212;-73
2020/12/03 12:41:08;;;;;;;63.05;8.40;;;4.00;1.00;;;;;;5055747;28;20296;-72
2020/12/03 12:43:34;;;;;;;67.50;8.50;;;3.90;1.00;;;;;;5054961;28;20237;-70
2020/12/03 12:46:00;;;;;;;62.67;8.00;;;3.90;1.00;;;;;;5053876;28;20244;-72
2020/12/03 12:48:27;;;;;;;64.20;7.20;;;3.90;1.00;;;;;;5053739;28;20237;-73
2020/12/03 12:50:53;;;;;;;63.00;8.27;;;3.90;1.00;;;;;;5053981;28;20350;-72
2020/12/03 12:53:20;;;;;;;62.28;8.02;;;3.90;1.00;;;;;;5055079;28;20205;-73
2020/12/03 12:55:46;;;;;;;61.70;7.72;;;3.80;1.00;;;;;;5054117;28;20240;-73
2020/12/03 12:58:13;;;;;;;64.40;9.50;;;3.90;1.00;;;;;;5055097;28;20583;-71
2020/12/03 13:00:40;;;;;;;64.13;8.80;;;4.00;1.00;;;;;;5055617;28;20225;-73
2020/12/03 13:03:06;;;;;;;64.47;8.32;;;4.00;1.00;;;;;;5055056;28;20751;-73
2020/12/03 13:05:33;;;;;;;63.63;8.02;;;4.10;1.00;;;;;;5055122;28;20201;-72
2020/12/03 13:07:59;;;;;;;61.80;8.07;;;4.30;1.00;;;;;;5055453;28;20278;-72
2020/12/03 13:10:25;;;;;;;62.30;7.75;;;4.30;1.00;;;;;;5055483;28;20233;-73
2020/12/03 13:12:54;;;;;;;61.85;8.02;;;4.30;1.00;;;;;;5055276;28;20206;-73